sensor_id;sensor_type;location;lat;lon;timestamp;P1;durP1;ratioP1;P2;durP2;ratioP2
53642;SDS011;39546;45.534;12.048;2024-01-27T00:01:17;76.72;;;67.47;;
53642;SDS011;39546;45.534;12.048;2024-01-27T00:07:19;67.90;;;54.58;;
53642;SDS011;39546;45.534;12.048;2024-01-27T00:13:21;66.80;;;51.13;;
53642;SDS011;39546;45.534;12.048;2024-01-27T00:19:22;91.20;;;82.50;;
53642;SDS011;39546;45.534;12.048;2024-01-27T00:25:24;66.68;;;56.83;;
53642;SDS011;39546;45.534;12.048;2024-01-27T00:31:25;69.32;;;61.80;;
53642;SDS011;39546;45.534;12.048;2024-01-27T00:37:27;64.32;;;57.70;;
53642;SDS011;39546;45.534;12.048;2024-01-27T00:43:29;56.72;;;50.78;;
53642;SDS011;39546;45.534;12.048;2024-01-27T00:49:30;63.78;;;56.75;;
53642;SDS011;39546;45.534;12.048;2024-01-27T00:55:32;78.30;;;60.60;;
53642;SDS011;39546;45.534;12.048;2024-01-27T01:01:33;73.47;;;65.35;;
53642;SDS011;39546;45.534;12.048;2024-01-27T01:07:35;152.27;;;72.93;;
53642;SDS011;39546;45.534;12.048;2024-01-27T01:13:37;108.35;;;69.75;;
53642;SDS011;39546;45.534;12.048;2024-01-27T01:19:38;62.55;;;52.30;;
53642;SDS011;39546;45.534;12.048;2024-01-27T01:25:41;71.47;;;61.25;;
53642;SDS011;39546;45.534;12.048;2024-01-27T01:31:43;59.83;;;53.47;;
53642;SDS011;39546;45.534;12.048;2024-01-27T01:37:45;58.53;;;51.85;;
53642;SDS011;39546;45.534;12.048;2024-01-27T01:43:49;59.95;;;53.78;;
53642;SDS011;39546;45.534;12.048;2024-01-27T01:49:50;84.15;;;64.82;;
53642;SDS011;39546;45.534;12.048;2024-01-27T01:55:54;116.63;;;108.93;;
53642;SDS011;39546;45.534;12.048;2024-01-27T02:01:56;76.95;;;70.40;;
53642;SDS011;39546;45.534;12.048;2024-01-27T02:07:58;113.35;;;106.07;;
53642;SDS011;39546;45.534;12.048;2024-01-27T02:14:01;93.45;;;85.35;;
53642;SDS011;39546;45.534;12.048;2024-01-27T02:20:03;57.20;;;51.28;;
53642;SDS011;39546;45.534;12.048;2024-01-27T02:26:08;72.05;;;66.10;;
53642;SDS011;39546;45.534;12.048;2024-01-27T02:32:10;52.85;;;46.67;;
53642;SDS011;39546;45.534;12.048;2024-01-27T02:38:11;47.78;;;43.28;;
53642;SDS011;39546;45.534;12.048;2024-01-27T02:44:13;62.42;;;56.38;;
53642;SDS011;39546;45.534;12.048;2024-01-27T02:57:12;118.53;;;81.93;;
53642;SDS011;39546;45.534;12.048;2024-01-27T03:03:16;74.40;;;68.35;;
53642;SDS011;39546;45.534;12.048;2024-01-27T03:09:18;67.93;;;62.03;;
53642;SDS011;39546;45.534;12.048;2024-01-27T03:15:19;57.38;;;52.20;;
53642;SDS011;39546;45.534;12.048;2024-01-27T03:21:21;119.63;;;111.72;;
53642;SDS011;39546;45.534;12.048;2024-01-27T03:27:22;50.25;;;45.08;;
53642;SDS011;39546;45.534;12.048;2024-01-27T03:33:24;77.90;;;71.35;;
53642;SDS011;39546;45.534;12.048;2024-01-27T03:39:25;58.30;;;52.20;;
53642;SDS011;39546;45.534;12.048;2024-01-27T03:45:27;76.43;;;70.15;;
53642;SDS011;39546;45.534;12.048;2024-01-27T03:51:28;69.78;;;64.50;;
53642;SDS011;39546;45.534;12.048;2024-01-27T03:57:30;91.65;;;85.68;;
53642;SDS011;39546;45.534;12.048;2024-01-27T04:03:32;141.05;;;132.00;;
53642;SDS011;39546;45.534;12.048;2024-01-27T04:09:33;122.88;;;115.15;;
53642;SDS011;39546;45.534;12.048;2024-01-27T04:15:35;132.75;;;124.60;;
53642;SDS011;39546;45.534;12.048;2024-01-27T04:21:39;133.52;;;125.43;;
53642;SDS011;39546;45.534;12.048;2024-01-27T04:27:40;109.72;;;102.68;;
53642;SDS011;39546;45.534;12.048;2024-01-27T04:33:43;140.07;;;131.30;;
53642;SDS011;39546;45.534;12.048;2024-01-27T04:39:45;114.40;;;107.28;;
53642;SDS011;39546;45.534;12.048;2024-01-27T04:45:47;138.35;;;130.30;;
53642;SDS011;39546;45.534;12.048;2024-01-27T04:51:49;108.30;;;101.63;;
53642;SDS011;39546;45.534;12.048;2024-01-27T04:57:51;131.30;;;123.68;;
53642;SDS011;39546;45.534;12.048;2024-01-27T05:03:53;156.52;;;148.27;;
53642;SDS011;39546;45.534;12.048;2024-01-27T05:09:54;166.85;;;135.90;;
53642;SDS011;39546;45.534;12.048;2024-01-27T05:15:56;168.48;;;159.60;;
53642;SDS011;39546;45.534;12.048;2024-01-27T05:21:57;109.85;;;102.88;;
53642;SDS011;39546;45.534;12.048;2024-01-27T05:27:59;114.28;;;107.15;;
53642;SDS011;39546;45.534;12.048;2024-01-27T05:34:00;164.55;;;155.45;;
53642;SDS011;39546;45.534;12.048;2024-01-27T05:40:02;87.43;;;81.13;;
53642;SDS011;39546;45.534;12.048;2024-01-27T05:46:04;120.78;;;114.30;;
53642;SDS011;39546;45.534;12.048;2024-01-27T05:52:05;96.75;;;91.18;;
53642;SDS011;39546;45.534;12.048;2024-01-27T05:58:07;112.70;;;104.20;;
53642;SDS011;39546;45.534;12.048;2024-01-27T06:04:09;84.10;;;77.97;;
53642;SDS011;39546;45.534;12.048;2024-01-27T06:10:13;85.93;;;79.18;;
53642;SDS011;39546;45.534;12.048;2024-01-27T06:16:15;134.23;;;126.60;;
53642;SDS011;39546;45.534;12.048;2024-01-27T06:22:19;118.07;;;108.28;;
53642;SDS011;39546;45.534;12.048;2024-01-27T06:28:20;115.15;;;109.03;;
53642;SDS011;39546;45.534;12.048;2024-01-27T06:34:22;116.55;;;109.90;;
53642;SDS011;39546;45.534;12.048;2024-01-27T06:40:23;129.00;;;122.35;;
53642;SDS011;39546;45.534;12.048;2024-01-27T06:46:25;104.90;;;97.03;;
53642;SDS011;39546;45.534;12.048;2024-01-27T06:52:27;93.85;;;86.47;;
53642;SDS011;39546;45.534;12.048;2024-01-27T06:58:29;140.18;;;132.73;;
53642;SDS011;39546;45.534;12.048;2024-01-27T07:04:31;130.38;;;119.18;;
53642;SDS011;39546;45.534;12.048;2024-01-27T07:10:33;117.30;;;111.03;;
53642;SDS011;39546;45.534;12.048;2024-01-27T07:16:36;142.68;;;131.65;;
53642;SDS011;39546;45.534;12.048;2024-01-27T07:22:38;100.78;;;93.95;;
53642;SDS011;39546;45.534;12.048;2024-01-27T07:28:39;120.05;;;111.22;;
53642;SDS011;39546;45.534;12.048;2024-01-27T07:34:42;138.50;;;125.82;;
53642;SDS011;39546;45.534;12.048;2024-01-27T07:40:44;116.30;;;109.57;;
53642;SDS011;39546;45.534;12.048;2024-01-27T07:46:46;37.58;;;33.55;;
53642;SDS011;39546;45.534;12.048;2024-01-27T07:52:48;62.90;;;59.08;;
53642;SDS011;39546;45.534;12.048;2024-01-27T07:58:49;106.95;;;101.43;;
53642;SDS011;39546;45.534;12.048;2024-01-27T08:04:51;115.78;;;110.03;;
53642;SDS011;39546;45.534;12.048;2024-01-27T08:10:52;88.65;;;82.38;;
53642;SDS011;39546;45.534;12.048;2024-01-27T08:16:54;77.78;;;72.18;;
53642;SDS011;39546;45.534;12.048;2024-01-27T08:22:56;36.53;;;33.25;;
53642;SDS011;39546;45.534;12.048;2024-01-27T08:28:58;50.60;;;42.97;;
53642;SDS011;39546;45.534;12.048;2024-01-27T08:35:01;59.92;;;54.72;;
53642;SDS011;39546;45.534;12.048;2024-01-27T08:41:03;51.63;;;45.38;;
53642;SDS011;39546;45.534;12.048;2024-01-27T08:47:05;100.13;;;93.10;;
53642;SDS011;39546;45.534;12.048;2024-01-27T08:53:07;93.43;;;85.32;;
53642;SDS011;39546;45.534;12.048;2024-01-27T08:59:08;46.15;;;41.33;;
53642;SDS011;39546;45.534;12.048;2024-01-27T09:05:10;43.75;;;39.47;;
53642;SDS011;39546;45.534;12.048;2024-01-27T09:11:11;49.78;;;42.45;;
53642;SDS011;39546;45.534;12.048;2024-01-27T09:17:13;39.35;;;35.42;;
53642;SDS011;39546;45.534;12.048;2024-01-27T09:23:15;51.78;;;46.50;;
53642;SDS011;39546;45.534;12.048;2024-01-27T09:29:30;51.75;;;46.83;;
53642;SDS011;39546;45.534;12.048;2024-01-27T09:35:32;43.95;;;39.55;;
53642;SDS011;39546;45.534;12.048;2024-01-27T09:41:33;57.75;;;52.47;;
53642;SDS011;39546;45.534;12.048;2024-01-27T09:47:36;41.97;;;37.65;;
53642;SDS011;39546;45.534;12.048;2024-01-27T09:53:39;50.97;;;46.50;;
53642;SDS011;39546;45.534;12.048;2024-01-27T09:59:41;54.95;;;49.85;;
53642;SDS011;39546;45.534;12.048;2024-01-27T10:05:50;56.55;;;50.97;;
53642;SDS011;39546;45.534;12.048;2024-01-27T10:11:53;57.43;;;50.17;;
53642;SDS011;39546;45.534;12.048;2024-01-27T10:18:07;46.05;;;41.25;;
53642;SDS011;39546;45.534;12.048;2024-01-27T10:24:09;57.38;;;52.08;;
53642;SDS011;39546;45.534;12.048;2024-01-27T10:44:01;57.92;;;51.90;;
53642;SDS011;39546;45.534;12.048;2024-01-27T10:50:03;44.45;;;38.78;;
53642;SDS011;39546;45.534;12.048;2024-01-27T10:56:10;54.72;;;46.53;;
53642;SDS011;39546;45.534;12.048;2024-01-27T11:02:12;82.97;;;74.78;;
53642;SDS011;39546;45.534;12.048;2024-01-27T11:08:15;80.18;;;72.75;;
53642;SDS011;39546;45.534;12.048;2024-01-27T11:14:18;73.18;;;55.58;;
53642;SDS011;39546;45.534;12.048;2024-01-27T11:20:20;54.42;;;43.55;;
53642;SDS011;39546;45.534;12.048;2024-01-27T11:26:24;62.42;;;49.75;;
53642;SDS011;39546;45.534;12.048;2024-01-27T11:32:26;73.05;;;64.93;;
53642;SDS011;39546;45.534;12.048;2024-01-27T11:38:29;64.00;;;51.15;;
53642;SDS011;39546;45.534;12.048;2024-01-27T11:44:35;66.60;;;55.78;;
53642;SDS011;39546;45.534;12.048;2024-01-27T11:50:37;61.85;;;48.08;;
53642;SDS011;39546;45.534;12.048;2024-01-27T11:56:39;95.20;;;69.93;;
53642;SDS011;39546;45.534;12.048;2024-01-27T12:02:41;79.32;;;70.80;;
53642;SDS011;39546;45.534;12.048;2024-01-27T12:08:42;94.75;;;67.35;;
53642;SDS011;39546;45.534;12.048;2024-01-27T12:14:48;82.07;;;65.43;;
53642;SDS011;39546;45.534;12.048;2024-01-27T12:21:00;59.60;;;45.97;;
53642;SDS011;39546;45.534;12.048;2024-01-27T12:27:02;70.07;;;52.25;;
53642;SDS011;39546;45.534;12.048;2024-01-27T12:33:10;81.30;;;60.20;;
53642;SDS011;39546;45.534;12.048;2024-01-27T12:39:13;78.93;;;67.20;;
53642;SDS011;39546;45.534;12.048;2024-01-27T12:45:15;73.43;;;54.63;;
53642;SDS011;39546;45.534;12.048;2024-01-27T12:51:21;73.18;;;63.60;;
53642;SDS011;39546;45.534;12.048;2024-01-27T12:57:23;63.90;;;54.92;;
53642;SDS011;39546;45.534;12.048;2024-01-27T13:10:56;82.63;;;63.60;;
53642;SDS011;39546;45.534;12.048;2024-01-27T13:16:58;79.45;;;52.45;;
53642;SDS011;39546;45.534;12.048;2024-01-27T13:23:00;105.40;;;68.80;;
53642;SDS011;39546;45.534;12.048;2024-01-27T13:29:01;85.88;;;67.72;;
53642;SDS011;39546;45.534;12.048;2024-01-27T13:35:03;67.78;;;56.40;;
53642;SDS011;39546;45.534;12.048;2024-01-27T13:41:10;83.60;;;66.03;;
53642;SDS011;39546;45.534;12.048;2024-01-27T13:47:19;77.25;;;67.57;;
53642;SDS011;39546;45.534;12.048;2024-01-27T13:53:20;61.22;;;50.13;;
53642;SDS011;39546;45.534;12.048;2024-01-27T13:59:22;78.90;;;69.82;;
53642;SDS011;39546;45.534;12.048;2024-01-27T14:05:23;62.40;;;55.30;;
53642;SDS011;39546;45.534;12.048;2024-01-27T14:11:25;73.07;;;65.60;;
53642;SDS011;39546;45.534;12.048;2024-01-27T14:17:29;76.90;;;56.22;;
53642;SDS011;39546;45.534;12.048;2024-01-27T14:23:31;66.32;;;59.05;;
53642;SDS011;39546;45.534;12.048;2024-01-27T14:29:34;80.30;;;71.75;;
53642;SDS011;39546;45.534;12.048;2024-01-27T14:35:37;78.93;;;59.75;;
53642;SDS011;39546;45.534;12.048;2024-01-27T14:41:40;57.15;;;41.67;;
53642;SDS011;39546;45.534;12.048;2024-01-27T14:47:42;55.90;;;41.50;;
53642;SDS011;39546;45.534;12.048;2024-01-27T14:53:44;63.53;;;42.13;;
53642;SDS011;39546;45.534;12.048;2024-01-27T14:59:47;62.10;;;41.95;;
53642;SDS011;39546;45.534;12.048;2024-01-27T15:05:53;67.35;;;46.58;;
53642;SDS011;39546;45.534;12.048;2024-01-27T15:11:54;54.30;;;33.53;;
53642;SDS011;39546;45.534;12.048;2024-01-27T15:17:56;71.05;;;47.42;;
53642;SDS011;39546;45.534;12.048;2024-01-27T15:24:21;58.55;;;40.22;;
53642;SDS011;39546;45.534;12.048;2024-01-27T15:30:23;62.33;;;45.17;;
53642;SDS011;39546;45.534;12.048;2024-01-27T15:36:25;58.53;;;39.05;;
53642;SDS011;39546;45.534;12.048;2024-01-27T15:42:26;81.13;;;55.38;;
53642;SDS011;39546;45.534;12.048;2024-01-27T15:48:29;64.32;;;41.00;;
53642;SDS011;39546;45.534;12.048;2024-01-27T16:00:59;46.47;;;37.45;;
53642;SDS011;39546;45.534;12.048;2024-01-27T16:07:01;41.55;;;36.40;;
53642;SDS011;39546;45.534;12.048;2024-01-27T16:13:02;40.92;;;28.45;;
53642;SDS011;39546;45.534;12.048;2024-01-27T16:19:10;47.97;;;37.67;;
53642;SDS011;39546;45.534;12.048;2024-01-27T16:25:17;88.60;;;56.30;;
53642;SDS011;39546;45.534;12.048;2024-01-27T16:31:20;98.68;;;60.53;;
53642;SDS011;39546;45.534;12.048;2024-01-27T16:37:22;76.97;;;52.10;;
53642;SDS011;39546;45.534;12.048;2024-01-27T16:43:23;66.72;;;51.53;;
53642;SDS011;39546;45.534;12.048;2024-01-27T16:49:32;60.85;;;54.78;;
53642;SDS011;39546;45.534;12.048;2024-01-27T16:55:33;67.13;;;46.33;;
53642;SDS011;39546;45.534;12.048;2024-01-27T17:01:35;58.70;;;43.65;;
53642;SDS011;39546;45.534;12.048;2024-01-27T17:07:37;36.67;;;31.48;;
53642;SDS011;39546;45.534;12.048;2024-01-27T17:13:39;73.85;;;59.97;;
53642;SDS011;39546;45.534;12.048;2024-01-27T17:19:48;57.42;;;44.33;;
53642;SDS011;39546;45.534;12.048;2024-01-27T17:25:50;47.10;;;41.58;;
53642;SDS011;39546;45.534;12.048;2024-01-27T17:31:52;54.55;;;45.40;;
53642;SDS011;39546;45.534;12.048;2024-01-27T17:37:53;49.00;;;36.50;;
53642;SDS011;39546;45.534;12.048;2024-01-27T17:43:55;50.13;;;42.83;;
53642;SDS011;39546;45.534;12.048;2024-01-27T17:49:57;56.03;;;46.45;;
53642;SDS011;39546;45.534;12.048;2024-01-27T17:55:58;51.45;;;44.28;;
53642;SDS011;39546;45.534;12.048;2024-01-27T18:02:01;62.33;;;49.58;;
53642;SDS011;39546;45.534;12.048;2024-01-27T18:08:03;55.25;;;43.83;;
53642;SDS011;39546;45.534;12.048;2024-01-27T18:14:05;70.88;;;63.92;;
53642;SDS011;39546;45.534;12.048;2024-01-27T18:20:07;55.67;;;49.97;;
53642;SDS011;39546;45.534;12.048;2024-01-27T18:26:12;61.55;;;50.65;;
53642;SDS011;39546;45.534;12.048;2024-01-27T18:32:17;58.55;;;52.40;;
53642;SDS011;39546;45.534;12.048;2024-01-27T18:38:20;37.83;;;33.58;;
53642;SDS011;39546;45.534;12.048;2024-01-27T18:44:23;84.30;;;72.32;;
53642;SDS011;39546;45.534;12.048;2024-01-27T18:50:24;52.28;;;46.67;;
53642;SDS011;39546;45.534;12.048;2024-01-27T18:56:26;40.50;;;36.35;;
53642;SDS011;39546;45.534;12.048;2024-01-27T19:02:28;43.90;;;39.90;;
53642;SDS011;39546;45.534;12.048;2024-01-27T19:08:39;37.67;;;33.75;;
53642;SDS011;39546;45.534;12.048;2024-01-27T19:14:41;42.75;;;38.17;;
53642;SDS011;39546;45.534;12.048;2024-01-27T19:20:43;45.42;;;34.90;;
53642;SDS011;39546;45.534;12.048;2024-01-27T19:26:44;46.58;;;42.55;;
53642;SDS011;39546;45.534;12.048;2024-01-27T19:32:46;58.60;;;53.13;;
53642;SDS011;39546;45.534;12.048;2024-01-27T19:38:48;69.55;;;62.45;;
53642;SDS011;39546;45.534;12.048;2024-01-27T19:44:50;66.68;;;58.65;;
53642;SDS011;39546;45.534;12.048;2024-01-27T19:50:51;46.83;;;42.13;;
53642;SDS011;39546;45.534;12.048;2024-01-27T19:56:53;59.13;;;53.30;;
53642;SDS011;39546;45.534;12.048;2024-01-27T20:02:55;49.70;;;44.10;;
53642;SDS011;39546;45.534;12.048;2024-01-27T20:08:57;54.40;;;48.13;;
53642;SDS011;39546;45.534;12.048;2024-01-27T20:14:59;52.22;;;46.85;;
53642;SDS011;39546;45.534;12.048;2024-01-27T20:21:00;51.67;;;46.45;;
53642;SDS011;39546;45.534;12.048;2024-01-27T20:27:03;44.53;;;40.03;;
53642;SDS011;39546;45.534;12.048;2024-01-27T20:33:05;38.75;;;35.15;;
53642;SDS011;39546;45.534;12.048;2024-01-27T20:39:08;52.47;;;47.33;;
53642;SDS011;39546;45.534;12.048;2024-01-27T20:45:10;40.92;;;36.80;;
53642;SDS011;39546;45.534;12.048;2024-01-27T20:51:11;64.40;;;58.33;;
53642;SDS011;39546;45.534;12.048;2024-01-27T20:57:13;48.97;;;44.78;;
53642;SDS011;39546;45.534;12.048;2024-01-27T21:03:15;47.25;;;43.55;;
53642;SDS011;39546;45.534;12.048;2024-01-27T21:09:22;41.33;;;37.67;;
53642;SDS011;39546;45.534;12.048;2024-01-27T21:15:24;43.72;;;39.70;;
53642;SDS011;39546;45.534;12.048;2024-01-27T21:21:26;46.72;;;43.08;;
53642;SDS011;39546;45.534;12.048;2024-01-27T21:27:28;34.80;;;31.50;;
53642;SDS011;39546;45.534;12.048;2024-01-27T21:33:30;46.78;;;42.35;;
53642;SDS011;39546;45.534;12.048;2024-01-27T21:39:33;47.55;;;43.97;;
53642;SDS011;39546;45.534;12.048;2024-01-27T21:45:35;50.45;;;46.25;;
53642;SDS011;39546;45.534;12.048;2024-01-27T21:51:37;55.30;;;50.75;;
53642;SDS011;39546;45.534;12.048;2024-01-27T21:57:38;34.67;;;31.52;;
53642;SDS011;39546;45.534;12.048;2024-01-27T22:03:41;43.38;;;39.25;;
53642;SDS011;39546;45.534;12.048;2024-01-27T22:09:58;38.03;;;34.75;;
53642;SDS011;39546;45.534;12.048;2024-01-27T22:15:59;35.92;;;32.65;;
53642;SDS011;39546;45.534;12.048;2024-01-27T22:22:01;33.63;;;30.65;;
53642;SDS011;39546;45.534;12.048;2024-01-27T22:28:03;37.30;;;33.95;;
53642;SDS011;39546;45.534;12.048;2024-01-27T22:34:06;35.67;;;31.95;;
53642;SDS011;39546;45.534;12.048;2024-01-27T22:40:08;34.00;;;30.77;;
53642;SDS011;39546;45.534;12.048;2024-01-27T22:46:13;39.83;;;35.83;;
53642;SDS011;39546;45.534;12.048;2024-01-27T22:52:20;39.15;;;35.30;;
53642;SDS011;39546;45.534;12.048;2024-01-27T22:58:31;36.97;;;33.33;;
53642;SDS011;39546;45.534;12.048;2024-01-27T23:04:33;46.75;;;41.78;;
53642;SDS011;39546;45.534;12.048;2024-01-27T23:10:34;31.17;;;27.85;;
53642;SDS011;39546;45.534;12.048;2024-01-27T23:16:37;35.10;;;29.95;;
53642;SDS011;39546;45.534;12.048;2024-01-27T23:22:39;26.05;;;23.10;;
53642;SDS011;39546;45.534;12.048;2024-01-27T23:28:40;32.90;;;25.90;;
53642;SDS011;39546;45.534;12.048;2024-01-27T23:34:44;30.42;;;27.15;;
53642;SDS011;39546;45.534;12.048;2024-01-27T23:40:46;31.83;;;28.38;;
53642;SDS011;39546;45.534;12.048;2024-01-27T23:46:48;28.50;;;25.58;;
53642;SDS011;39546;45.534;12.048;2024-01-27T23:52:50;37.47;;;30.63;;
53642;SDS011;39546;45.534;12.048;2024-01-27T23:58:51;29.02;;;24.80;;
